sensor_id;sensor_type;location;lat;lon;timestamp;pressure;altitude;pressure_sealevel;temperature;humidity
60345;BME280;46188;52.324;8.032;2023-03-22T00:00:37;99875.22;;;9.37;100.00
60345;BME280;46188;52.324;8.032;2023-03-22T00:03:02;99868.22;;;9.41;100.00
60345;BME280;46188;52.324;8.032;2023-03-22T00:05:28;99857.72;;;9.41;100.00
60345;BME280;46188;52.324;8.032;2023-03-22T00:07:56;99858.59;;;9.43;100.00
60345;BME280;46188;52.324;8.032;2023-03-22T00:10:26;99857.72;;;9.44;100.00
60345;BME280;46188;52.324;8.032;2023-03-22T00:12:53;99851.59;;;9.45;100.00
60345;BME280;46188;52.324;8.032;2023-03-22T00:15:18;99855.13;;;9.49;100.00
60345;BME280;46188;52.324;8.032;2023-03-22T00:17:44;99856.03;;;9.52;100.00
60345;BME280;46188;52.324;8.032;2023-03-22T00:20:09;99855.16;;;9.53;100.00
60345;BME280;46188;52.324;8.032;2023-03-22T00:22:35;99843.75;;;9.53;100.00
60345;BME280;46188;52.324;8.032;2023-03-22T00:25:01;99845.53;;;9.57;100.00
60345;BME280;46188;52.324;8.032;2023-03-22T00:27:26;99849.03;;;9.56;100.00
60345;BME280;46188;52.324;8.032;2023-03-22T00:29:51;99848.16;;;9.57;100.00
60345;BME280;46188;52.324;8.032;2023-03-22T00:32:17;99852.53;;;9.58;100.00
60345;BME280;46188;52.324;8.032;2023-03-22T00:34:42;99849.03;;;9.57;100.00
60345;BME280;46188;52.324;8.032;2023-03-22T00:37:07;99844.63;;;9.58;100.00
60345;BME280;46188;52.324;8.032;2023-03-22T00:39:32;99843.78;;;9.57;100.00
60345;BME280;46188;52.324;8.032;2023-03-22T00:41:58;99845.53;;;9.58;100.00
60345;BME280;46188;52.324;8.032;2023-03-22T00:44:23;99847.28;;;9.59;100.00
60345;BME280;46188;52.324;8.032;2023-03-22T00:46:48;99849.03;;;9.57;100.00
60345;BME280;46188;52.324;8.032;2023-03-22T00:49:13;99845.53;;;9.60;100.00
60345;BME280;46188;52.324;8.032;2023-03-22T00:51:39;99844.66;;;9.61;100.00
60345;BME280;46188;52.324;8.032;2023-03-22T00:54:04;99849.06;;;9.62;100.00
60345;BME280;46188;52.324;8.032;2023-03-22T00:56:30;99843.78;;;9.60;100.00
60345;BME280;46188;52.324;8.032;2023-03-22T00:58:57;99846.41;;;9.60;100.00
60345;BME280;46188;52.324;8.032;2023-03-22T01:01:23;99843.78;;;9.60;100.00
60345;BME280;46188;52.324;8.032;2023-03-22T01:03:48;99828.84;;;9.58;100.00
60345;BME280;46188;52.324;8.032;2023-03-22T01:06:16;99828.88;;;9.61;100.00
60345;BME280;46188;52.324;8.032;2023-03-22T01:08:41;99829.75;;;9.63;100.00
60345;BME280;46188;52.324;8.032;2023-03-22T01:11:07;99832.38;;;9.63;100.00
60345;BME280;46188;52.324;8.032;2023-03-22T01:13:34;99829.75;;;9.65;100.00
60345;BME280;46188;52.324;8.032;2023-03-22T01:16:02;99824.50;;;9.62;100.00
60345;BME280;46188;52.324;8.032;2023-03-22T01:18:27;99821.84;;;9.58;100.00
60345;BME280;46188;52.324;8.032;2023-03-22T01:20:52;99813.97;;;9.58;100.00
60345;BME280;46188;52.324;8.032;2023-03-22T01:23:17;99812.19;;;9.56;100.00
60345;BME280;46188;52.324;8.032;2023-03-22T01:25:43;99813.94;;;9.54;100.00
60345;BME280;46188;52.324;8.032;2023-03-22T01:28:08;99809.53;;;9.54;100.00
60345;BME280;46188;52.324;8.032;2023-03-22T01:30:33;99813.97;;;9.58;100.00
60345;BME280;46188;52.324;8.032;2023-03-22T01:32:59;99805.19;;;9.59;100.00
60345;BME280;46188;52.324;8.032;2023-03-22T01:35:24;99811.31;;;9.57;100.00
60345;BME280;46188;52.324;8.032;2023-03-22T01:37:50;99800.78;;;9.57;100.00
60345;BME280;46188;52.324;8.032;2023-03-22T01:40:15;99800.81;;;9.60;100.00
60345;BME280;46188;52.324;8.032;2023-03-22T01:42:41;99799.03;;;9.56;100.00
60345;BME280;46188;52.324;8.032;2023-03-22T01:45:29;99799.91;;;9.52;100.00
60345;BME280;46188;52.324;8.032;2023-03-22T01:48:01;99799.00;;;9.53;100.00
60345;BME280;46188;52.324;8.032;2023-03-22T01:50:28;99789.38;;;9.53;100.00
60345;BME280;46188;52.324;8.032;2023-03-22T01:52:55;99792.88;;;9.54;100.00
60345;BME280;46188;52.324;8.032;2023-03-22T01:55:22;99788.47;;;9.53;100.00
60345;BME280;46188;52.324;8.032;2023-03-22T01:57:48;99786.72;;;9.55;100.00
60345;BME280;46188;52.324;8.032;2023-03-22T02:00:15;99784.13;;;9.53;100.00
60345;BME280;46188;52.324;8.032;2023-03-22T02:02:47;99777.94;;;9.51;100.00
60345;BME280;46188;52.324;8.032;2023-03-22T02:05:14;99776.19;;;9.49;100.00
60345;BME280;46188;52.324;8.032;2023-03-22T02:07:40;99777.06;;;9.49;100.00
60345;BME280;46188;52.324;8.032;2023-03-22T02:10:11;99771.78;;;9.46;100.00
60345;BME280;46188;52.324;8.032;2023-03-22T02:12:42;99764.78;;;9.45;100.00
60345;BME280;46188;52.324;8.032;2023-03-22T02:15:22;99766.53;;;9.46;100.00
60345;BME280;46188;52.324;8.032;2023-03-22T02:26:43;99766.53;;;9.46;100.00
60345;BME280;46188;52.324;8.032;2023-03-22T02:29:34;99762.16;;;9.47;100.00
60345;BME280;46188;52.324;8.032;2023-03-22T02:32:07;99759.53;;;9.45;100.00
60345;BME280;46188;52.324;8.032;2023-03-22T02:34:52;99761.25;;;9.45;100.00
60345;BME280;46188;52.324;8.032;2023-03-22T02:38:26;99756.00;;;9.46;100.00
60345;BME280;46188;52.324;8.032;2023-03-22T02:40:49;99751.63;;;9.45;100.00
60345;BME280;46188;52.324;8.032;2023-03-22T02:43:31;99756.88;;;9.48;100.00
60345;BME280;46188;52.324;8.032;2023-03-22T02:46:14;99750.75;;;9.45;100.00
60345;BME280;46188;52.324;8.032;2023-03-22T02:48:51;99750.72;;;9.43;100.00
60345;BME280;46188;52.324;8.032;2023-03-22T02:51:21;99745.47;;;9.43;100.00
60345;BME280;46188;52.324;8.032;2023-03-22T02:54:03;99749.88;;;9.47;100.00
60345;BME280;46188;52.324;8.032;2023-03-22T02:56:44;99744.63;;;9.46;100.00
60345;BME280;46188;52.324;8.032;2023-03-22T02:59:12;99742.84;;;9.45;100.00
60345;BME280;46188;52.324;8.032;2023-03-22T03:01:43;99735.88;;;9.47;100.00
60345;BME280;46188;52.324;8.032;2023-03-22T03:04:13;99733.22;;;9.47;100.00
60345;BME280;46188;52.324;8.032;2023-03-22T03:06:42;99735.88;;;9.47;100.00
60345;BME280;46188;52.324;8.032;2023-03-22T03:09:11;99731.47;;;9.47;100.00
60345;BME280;46188;52.324;8.032;2023-03-22T03:11:37;99734.09;;;9.47;100.00
60345;BME280;46188;52.324;8.032;2023-03-22T03:14:03;99725.34;;;9.47;100.00
60345;BME280;46188;52.324;8.032;2023-03-22T03:16:30;99726.22;;;9.49;100.00
60345;BME280;46188;52.324;8.032;2023-03-22T03:19:18;99724.44;;;9.49;100.00
60345;BME280;46188;52.324;8.032;2023-03-22T03:21:57;99719.19;;;9.48;100.00
60345;BME280;46188;52.324;8.032;2023-03-22T03:24:38;99721.81;;;9.51;100.00
60345;BME280;46188;52.324;8.032;2023-03-22T03:27:15;99721.81;;;9.51;100.00
60345;BME280;46188;52.324;8.032;2023-03-22T03:29:49;99719.19;;;9.49;100.00
60345;BME280;46188;52.324;8.032;2023-03-22T03:32:19;99706.03;;;9.51;100.00
60345;BME280;46188;52.324;8.032;2023-03-22T03:34:51;99712.19;;;9.53;100.00
60345;BME280;46188;52.324;8.032;2023-03-22T03:37:25;99717.44;;;9.53;100.00
60345;BME280;46188;52.324;8.032;2023-03-22T03:40:06;99712.19;;;9.57;100.00
60345;BME280;46188;52.324;8.032;2023-03-22T03:42:36;99705.19;;;9.58;100.00
60345;BME280;46188;52.324;8.032;2023-03-22T03:45:03;99709.56;;;9.56;100.00
60345;BME280;46188;52.324;8.032;2023-03-22T03:47:29;99704.31;;;9.56;100.00
60345;BME280;46188;52.324;8.032;2023-03-22T03:49:55;99713.97;;;9.58;100.00
60345;BME280;46188;52.324;8.032;2023-03-22T03:52:21;99708.69;;;9.55;100.00
60345;BME280;46188;52.324;8.032;2023-03-22T03:54:49;99704.31;;;9.56;100.00
60345;BME280;46188;52.324;8.032;2023-03-22T03:57:14;99699.03;;;9.57;100.00
60345;BME280;46188;52.324;8.032;2023-03-22T03:59:40;99690.28;;;9.55;100.00
60345;BME280;46188;52.324;8.032;2023-03-22T04:02:05;99690.28;;;9.60;100.00
60345;BME280;46188;52.324;8.032;2023-03-22T04:04:31;99691.16;;;9.59;100.00
60345;BME280;46188;52.324;8.032;2023-03-22T04:06:59;99689.41;;;9.61;100.00
60345;BME280;46188;52.324;8.032;2023-03-22T04:09:27;99691.16;;;9.60;100.00
60345;BME280;46188;52.324;8.032;2023-03-22T04:11:54;99688.53;;;9.60;100.00
60345;BME280;46188;52.324;8.032;2023-03-22T04:14:20;99692.94;;;9.62;100.00
60345;BME280;46188;52.324;8.032;2023-03-22T04:16:46;99693.81;;;9.64;100.00
60345;BME280;46188;52.324;8.032;2023-03-22T04:19:11;99697.31;;;9.66;100.00
60345;BME280;46188;52.324;8.032;2023-03-22T04:21:37;99692.91;;;9.66;100.00
60345;BME280;46188;52.324;8.032;2023-03-22T04:24:02;99691.19;;;9.67;100.00
60345;BME280;46188;52.324;8.032;2023-03-22T04:26:27;99681.50;;;9.64;100.00
60345;BME280;46188;52.324;8.032;2023-03-22T04:28:53;99684.16;;;9.66;100.00
60345;BME280;46188;52.324;8.032;2023-03-22T04:31:18;99680.66;;;9.67;100.00
60345;BME280;46188;52.324;8.032;2023-03-22T04:33:43;99674.50;;;9.66;100.00
60345;BME280;46188;52.324;8.032;2023-03-22T04:36:14;99676.25;;;9.67;100.00
60345;BME280;46188;52.324;8.032;2023-03-22T04:38:42;99674.50;;;9.68;100.00
60345;BME280;46188;52.324;8.032;2023-03-22T04:41:08;99671.88;;;9.68;100.00
60345;BME280;46188;52.324;8.032;2023-03-22T04:43:34;99679.75;;;9.66;100.00
60345;BME280;46188;52.324;8.032;2023-03-22T04:46:02;99672.75;;;9.67;100.00
60345;BME280;46188;52.324;8.032;2023-03-22T04:48:28;99671.88;;;9.68;100.00
60345;BME280;46188;52.324;8.032;2023-03-22T04:50:53;99663.97;;;9.68;100.00
60345;BME280;46188;52.324;8.032;2023-03-22T04:53:18;99669.22;;;9.65;100.00
60345;BME280;46188;52.324;8.032;2023-03-22T04:55:44;99663.06;;;9.56;100.00
60345;BME280;46188;52.324;8.032;2023-03-22T04:58:09;99671.88;;;9.57;100.00
60345;BME280;46188;52.324;8.032;2023-03-22T05:00:35;99669.22;;;9.54;100.00
60345;BME280;46188;52.324;8.032;2023-03-22T05:03:01;99663.09;;;9.53;100.00
60345;BME280;46188;52.324;8.032;2023-03-22T05:05:28;99658.69;;;9.51;100.00
60345;BME280;46188;52.324;8.032;2023-03-22T05:07:53;99659.56;;;9.54;100.00
60345;BME280;46188;52.324;8.032;2023-03-22T05:10:18;99656.94;;;9.57;100.00
60345;BME280;46188;52.324;8.032;2023-03-22T05:12:43;99656.06;;;9.55;100.00
60345;BME280;46188;52.324;8.032;2023-03-22T05:15:09;99650.81;;;9.54;100.00
60345;BME280;46188;52.324;8.032;2023-03-22T05:17:34;99654.28;;;9.51;100.00
60345;BME280;46188;52.324;8.032;2023-03-22T05:20:00;99656.03;;;9.49;100.00
60345;BME280;46188;52.324;8.032;2023-03-22T05:22:32;99643.78;;;9.45;100.00
60345;BME280;46188;52.324;8.032;2023-03-22T05:24:58;99648.16;;;9.38;100.00
60345;BME280;46188;52.324;8.032;2023-03-22T05:27:23;99642.84;;;9.40;100.00
60345;BME280;46188;52.324;8.032;2023-03-22T05:29:55;99640.25;;;9.37;100.00
60345;BME280;46188;52.324;8.032;2023-03-22T05:32:20;99644.59;;;9.33;100.00
60345;BME280;46188;52.324;8.032;2023-03-22T05:34:49;99644.63;;;9.32;100.00
60345;BME280;46188;52.324;8.032;2023-03-22T05:37:15;99644.59;;;9.33;100.00
60345;BME280;46188;52.324;8.032;2023-03-22T05:39:41;99642.84;;;9.29;100.00
60345;BME280;46188;52.324;8.032;2023-03-22T05:42:06;99646.31;;;9.25;100.00
60345;BME280;46188;52.324;8.032;2023-03-22T05:44:31;99631.44;;;9.27;100.00
60345;BME280;46188;52.324;8.032;2023-03-22T05:46:57;99642.84;;;9.29;100.00
60345;BME280;46188;52.324;8.032;2023-03-22T05:49:22;99636.72;;;9.27;100.00
60345;BME280;46188;52.324;8.032;2023-03-22T05:51:48;99638.47;;;9.30;100.00
60345;BME280;46188;52.324;8.032;2023-03-22T05:54:14;99633.22;;;9.33;100.00
60345;BME280;46188;52.324;8.032;2023-03-22T05:56:39;99628.84;;;9.29;100.00
60345;BME280;46188;52.324;8.032;2023-03-22T05:59:05;99641.09;;;9.30;100.00
60345;BME280;46188;52.324;8.032;2023-03-22T06:01:31;99635.84;;;9.33;100.00
60345;BME280;46188;52.324;8.032;2023-03-22T06:03:57;99633.19;;;9.31;100.00
60345;BME280;46188;52.324;8.032;2023-03-22T06:06:22;99641.97;;;9.35;100.00
60345;BME280;46188;52.324;8.032;2023-03-22T06:08:47;99638.50;;;9.39;100.00
60345;BME280;46188;52.324;8.032;2023-03-22T06:11:13;99634.97;;;9.41;100.00
60345;BME280;46188;52.324;8.032;2023-03-22T06:13:38;99640.22;;;9.40;100.00
60345;BME280;46188;52.324;8.032;2023-03-22T06:16:04;99641.13;;;9.44;100.00
60345;BME280;46188;52.324;8.032;2023-03-22T06:18:30;99629.72;;;9.46;100.00
60345;BME280;46188;52.324;8.032;2023-03-22T06:20:56;99624.47;;;9.49;100.00
60345;BME280;46188;52.324;8.032;2023-03-22T06:23:22;99615.72;;;9.50;100.00
60345;BME280;46188;52.324;8.032;2023-03-22T06:25:47;99617.47;;;9.57;100.00
60345;BME280;46188;52.324;8.032;2023-03-22T06:28:12;99619.25;;;9.62;100.00
60345;BME280;46188;52.324;8.032;2023-03-22T06:30:38;99604.34;;;9.67;100.00
60345;BME280;46188;52.324;8.032;2023-03-22T06:33:03;99612.25;;;9.70;100.00
60345;BME280;46188;52.324;8.032;2023-03-22T06:35:31;99616.63;;;9.72;100.00
60345;BME280;46188;52.324;8.032;2023-03-22T06:37:56;99614.84;;;9.76;100.00
60345;BME280;46188;52.324;8.032;2023-03-22T06:40:21;99620.13;;;9.77;100.00
60345;BME280;46188;52.324;8.032;2023-03-22T06:42:47;99604.34;;;9.79;100.00
60345;BME280;46188;52.324;8.032;2023-03-22T06:45:12;99609.59;;;9.81;100.00
60345;BME280;46188;52.324;8.032;2023-03-22T06:47:43;99614.00;;;9.83;100.00
60345;BME280;46188;52.324;8.032;2023-03-22T06:50:09;99601.72;;;9.85;100.00
60345;BME280;46188;52.324;8.032;2023-03-22T06:52:34;99604.34;;;9.85;100.00
60345;BME280;46188;52.324;8.032;2023-03-22T06:55:00;99600.81;;;9.88;100.00
60345;BME280;46188;52.324;8.032;2023-03-22T06:57:25;99599.09;;;9.90;100.00
60345;BME280;46188;52.324;8.032;2023-03-22T06:59:50;99597.31;;;9.89;100.00
60345;BME280;46188;52.324;8.032;2023-03-22T07:02:16;99601.69;;;9.93;100.00
60345;BME280;46188;52.324;8.032;2023-03-22T07:04:41;99599.09;;;9.91;100.00
60345;BME280;46188;52.324;8.032;2023-03-22T07:07:06;99587.66;;;9.91;100.00
60345;BME280;46188;52.324;8.032;2023-03-22T07:09:31;99594.69;;;9.92;100.00
60345;BME280;46188;52.324;8.032;2023-03-22T07:11:57;99601.69;;;9.93;100.00
60345;BME280;46188;52.324;8.032;2023-03-22T07:14:22;99597.31;;;9.93;100.00
60345;BME280;46188;52.324;8.032;2023-03-22T07:16:47;99586.78;;;9.93;100.00
60345;BME280;46188;52.324;8.032;2023-03-22T07:19:13;99587.66;;;9.94;100.00
60345;BME280;46188;52.324;8.032;2023-03-22T07:21:38;99588.53;;;9.93;100.00
60345;BME280;46188;52.324;8.032;2023-03-22T07:24:04;99582.38;;;9.91;100.00
60345;BME280;46188;52.324;8.032;2023-03-22T07:26:30;99578.03;;;9.91;100.00
60345;BME280;46188;52.324;8.032;2023-03-22T07:28:56;99588.56;;;9.91;100.00
60345;BME280;46188;52.324;8.032;2023-03-22T07:31:21;99580.66;;;9.91;100.00
60345;BME280;46188;52.324;8.032;2023-03-22T07:33:46;99582.38;;;9.91;100.00
60345;BME280;46188;52.324;8.032;2023-03-22T07:36:13;99570.13;;;9.90;100.00
60345;BME280;46188;52.324;8.032;2023-03-22T07:38:38;99579.75;;;9.89;100.00
60345;BME280;46188;52.324;8.032;2023-03-22T07:41:04;99565.72;;;9.90;100.00
60345;BME280;46188;52.324;8.032;2023-03-22T07:43:29;99573.63;;;9.93;100.00
60345;BME280;46188;52.324;8.032;2023-03-22T07:45:55;99585.03;;;10.00;100.00
60345;BME280;46188;52.324;8.032;2023-03-22T07:48:21;99577.09;;;10.17;100.00
60345;BME280;46188;52.324;8.032;2023-03-22T07:50:47;99575.31;;;10.28;100.00
60345;BME280;46188;52.324;8.032;2023-03-22T07:53:12;99570.06;;;10.31;100.00
60345;BME280;46188;52.324;8.032;2023-03-22T07:55:38;99573.59;;;10.35;100.00
60345;BME280;46188;52.324;8.032;2023-03-22T07:58:04;99577.06;;;10.42;100.00
60345;BME280;46188;52.324;8.032;2023-03-22T08:00:30;99577.06;;;10.43;100.00
60345;BME280;46188;52.324;8.032;2023-03-22T08:02:55;99585.84;;;10.48;100.00
60345;BME280;46188;52.324;8.032;2023-03-22T08:05:21;99571.75;;;10.54;100.00
60345;BME280;46188;52.324;8.032;2023-03-22T08:07:47;99578.78;;;10.60;100.00
60345;BME280;46188;52.324;8.032;2023-03-22T08:10:12;99577.88;;;10.68;100.00
60345;BME280;46188;52.324;8.032;2023-03-22T08:12:38;99577.00;;;10.71;100.00
60345;BME280;46188;52.324;8.032;2023-03-22T08:15:03;99568.13;;;10.86;100.00
60345;BME280;46188;52.324;8.032;2023-03-22T08:17:28;99569.00;;;10.86;100.00
60345;BME280;46188;52.324;8.032;2023-03-22T08:19:55;99567.25;;;10.84;100.00
60345;BME280;46188;52.324;8.032;2023-03-22T08:22:20;99565.53;;;10.78;100.00
60345;BME280;46188;52.324;8.032;2023-03-22T08:24:53;99554.97;;;10.83;100.00
60345;BME280;46188;52.324;8.032;2023-03-22T08:27:18;99569.00;;;10.85;100.00
60345;BME280;46188;52.324;8.032;2023-03-22T08:29:44;99562.88;;;10.80;100.00
60345;BME280;46188;52.324;8.032;2023-03-22T08:32:11;99557.59;;;10.80;100.00
60345;BME280;46188;52.324;8.032;2023-03-22T08:34:38;99553.19;;;10.86;100.00
60345;BME280;46188;52.324;8.032;2023-03-22T08:37:04;99570.75;;;10.87;100.00
60345;BME280;46188;52.324;8.032;2023-03-22T08:39:30;99564.47;;;11.08;100.00
60345;BME280;46188;52.324;8.032;2023-03-22T08:41:56;99555.69;;;11.13;100.00
60345;BME280;46188;52.324;8.032;2023-03-22T08:44:21;99560.03;;;11.18;100.00
60345;BME280;46188;52.324;8.032;2023-03-22T08:46:47;99552.94;;;11.26;100.00
60345;BME280;46188;52.324;8.032;2023-03-22T08:49:12;99558.19;;;11.34;100.00
60345;BME280;46188;52.324;8.032;2023-03-22T08:51:38;99557.25;;;11.38;100.00
60345;BME280;46188;52.324;8.032;2023-03-22T08:54:04;99548.47;;;11.38;100.00
60345;BME280;46188;52.324;8.032;2023-03-22T08:56:29;99555.53;;;11.34;100.00
60345;BME280;46188;52.324;8.032;2023-03-22T08:58:56;99552.06;;;11.29;100.00
60345;BME280;46188;52.324;8.032;2023-03-22T09:01:21;99553.88;;;11.21;100.00
60345;BME280;46188;52.324;8.032;2023-03-22T09:03:47;99553.88;;;11.21;100.00
60345;BME280;46188;52.324;8.032;2023-03-22T09:06:13;99554.75;;;11.17;100.00
60345;BME280;46188;52.324;8.032;2023-03-22T09:08:38;99555.59;;;11.22;100.00
60345;BME280;46188;52.324;8.032;2023-03-22T09:11:07;99543.28;;;11.27;100.00
60345;BME280;46188;52.324;8.032;2023-03-22T09:13:32;99554.63;;;11.35;100.00
60345;BME280;46188;52.324;8.032;2023-03-22T09:15:58;99542.31;;;11.39;100.00
60345;BME280;46188;52.324;8.032;2023-03-22T09:18:24;99543.22;;;11.36;100.00
60345;BME280;46188;52.324;8.032;2023-03-22T09:20:50;99554.69;;;11.32;100.00
60345;BME280;46188;52.324;8.032;2023-03-22T09:23:16;99555.56;;;11.28;100.00
60345;BME280;46188;52.324;8.032;2023-03-22T09:25:45;99538.88;;;11.29;100.00
60345;BME280;46188;52.324;8.032;2023-03-22T09:28:10;99539.75;;;11.28;100.00
60345;BME280;46188;52.324;8.032;2023-03-22T09:30:36;99535.38;;;11.27;100.00
60345;BME280;46188;52.324;8.032;2023-03-22T09:33:02;99533.59;;;11.27;100.00
60345;BME280;46188;52.324;8.032;2023-03-22T09:35:27;99543.25;;;11.29;100.00
60345;BME280;46188;52.324;8.032;2023-03-22T09:37:53;99533.59;;;11.29;100.00
60345;BME280;46188;52.324;8.032;2023-03-22T09:40:25;99557.22;;;11.44;100.00
60345;BME280;46188;52.324;8.032;2023-03-22T09:42:54;99559.88;;;11.44;100.00
60345;BME280;46188;52.324;8.032;2023-03-22T09:45:25;99559.03;;;11.36;100.00
60345;BME280;46188;52.324;8.032;2023-03-22T09:47:59;99552.06;;;11.31;100.00
60345;BME280;46188;52.324;8.032;2023-03-22T09:50:27;99555.56;;;11.31;100.00
60345;BME280;46188;52.324;8.032;2023-03-22T09:52:54;99559.97;;;11.29;100.00
60345;BME280;46188;52.324;8.032;2023-03-22T09:58:06;99561.66;;;11.41;100.00
60345;BME280;46188;52.324;8.032;2023-03-22T10:00:44;99540.56;;;11.39;100.00
60345;BME280;46188;52.324;8.032;2023-03-22T10:05:51;99549.25;;;11.54;100.00
60345;BME280;46188;52.324;8.032;2023-03-22T10:14:45;99545.72;;;11.52;100.00
60345;BME280;46188;52.324;8.032;2023-03-22T10:17:17;99558.81;;;11.70;99.30
60345;BME280;46188;52.324;8.032;2023-03-22T10:19:52;99549.25;;;11.55;98.58
60345;BME280;46188;52.324;8.032;2023-03-22T10:22:21;99556.25;;;11.56;98.95
60345;BME280;46188;52.324;8.032;2023-03-22T10:24:49;99548.28;;;11.64;97.53
60345;BME280;46188;52.324;8.032;2023-03-22T10:27:18;99564.94;;;11.71;95.39
60345;BME280;46188;52.324;8.032;2023-03-22T10:30:20;99556.19;;;11.64;92.42
60345;BME280;46188;52.324;8.032;2023-03-22T10:32:59;99551.88;;;11.57;93.48
60345;BME280;46188;52.324;8.032;2023-03-22T10:35:25;99548.25;;;11.67;93.47
60345;BME280;46188;52.324;8.032;2023-03-22T10:37:51;99540.22;;;11.78;92.40
60345;BME280;46188;52.324;8.032;2023-03-22T10:40:32;99540.16;;;11.87;91.71
60345;BME280;46188;52.324;8.032;2023-03-22T10:43:11;99582.41;;;11.89;91.88
60345;BME280;46188;52.324;8.032;2023-03-22T10:45:41;99546.28;;;11.91;90.67
60345;BME280;46188;52.324;8.032;2023-03-22T10:48:22;99539.97;;;12.09;88.03
60345;BME280;46188;52.324;8.032;2023-03-22T10:50:49;99542.63;;;12.07;88.93
60345;BME280;46188;52.324;8.032;2023-03-22T10:53:37;99524.97;;;12.11;87.93
60345;BME280;46188;52.324;8.032;2023-03-22T10:56:04;99546.97;;;12.14;88.33
60345;BME280;46188;52.324;8.032;2023-03-22T10:58:32;99538.16;;;12.15;85.43
60345;BME280;46188;52.324;8.032;2023-03-22T11:01:03;99534.69;;;12.10;86.89
60345;BME280;46188;52.324;8.032;2023-03-22T11:06:15;99544.28;;;12.17;86.21
60345;BME280;46188;52.324;8.032;2023-03-22T11:11:15;99533.66;;;12.24;87.65
60345;BME280;46188;52.324;8.032;2023-03-22T11:13:41;99531.81;;;12.30;86.54
60345;BME280;46188;52.324;8.032;2023-03-22T11:16:07;99538.72;;;12.44;85.85
60345;BME280;46188;52.324;8.032;2023-03-22T11:18:33;99549.13;;;12.58;84.41
60345;BME280;46188;52.324;8.032;2023-03-22T11:21:06;99554.28;;;12.68;82.83
60345;BME280;46188;52.324;8.032;2023-03-22T11:23:36;99548.94;;;12.73;81.36
60345;BME280;46188;52.324;8.032;2023-03-22T11:26:09;99542.94;;;12.60;81.77
60345;BME280;46188;52.324;8.032;2023-03-22T11:28:45;99552.69;;;12.57;82.56
60345;BME280;46188;52.324;8.032;2023-03-22T11:31:16;99549.19;;;12.54;82.19
60345;BME280;46188;52.324;8.032;2023-03-22T11:33:57;99536.97;;;12.43;81.97
60345;BME280;46188;52.324;8.032;2023-03-22T11:36:24;99541.41;;;12.39;82.85
60345;BME280;46188;52.324;8.032;2023-03-22T11:39:00;99533.47;;;12.39;82.08
60345;BME280;46188;52.324;8.032;2023-03-22T11:41:28;99522.13;;;12.29;82.21
60345;BME280;46188;52.324;8.032;2023-03-22T11:44:01;99531.84;;;12.27;83.41
60345;BME280;46188;52.324;8.032;2023-03-22T11:46:28;99533.63;;;12.27;83.82
60345;BME280;46188;52.324;8.032;2023-03-22T11:49:00;99540.72;;;12.25;82.50
60345;BME280;46188;52.324;8.032;2023-03-22T11:51:29;99535.47;;;12.18;81.30
60345;BME280;46188;52.324;8.032;2023-03-22T11:54:05;99539.97;;;12.12;82.58
60345;BME280;46188;52.324;8.032;2023-03-22T11:56:31;99533.78;;;12.11;81.89
60345;BME280;46188;52.324;8.032;2023-03-22T11:59:10;99530.28;;;12.09;81.58
60345;BME280;46188;52.324;8.032;2023-03-22T12:01:45;99532.94;;;12.06;82.34
60345;BME280;46188;52.324;8.032;2023-03-22T12:04:16;99532.09;;;12.04;83.04
60345;BME280;46188;52.324;8.032;2023-03-22T12:06:42;99521.53;;;12.03;83.77
60345;BME280;46188;52.324;8.032;2023-03-22T12:11:51;99523.31;;;12.02;85.63
60345;BME280;46188;52.324;8.032;2023-03-22T12:14:29;99522.41;;;12.05;86.11
60345;BME280;46188;52.324;8.032;2023-03-22T12:17:03;99523.28;;;12.05;87.61
60345;BME280;46188;52.324;8.032;2023-03-22T12:19:46;99513.56;;;12.07;90.49
60345;BME280;46188;52.324;8.032;2023-03-22T12:22:21;99512.78;;;12.00;91.08
60345;BME280;46188;52.324;8.032;2023-03-22T12:24:49;99514.59;;;11.94;93.21
60345;BME280;46188;52.324;8.032;2023-03-22T12:27:21;99503.19;;;11.92;95.39
60345;BME280;46188;52.324;8.032;2023-03-22T12:29:58;99510.25;;;11.87;96.76
60345;BME280;46188;52.324;8.032;2023-03-22T12:32:33;99519.09;;;11.78;98.58
60345;BME280;46188;52.324;8.032;2023-03-22T12:34:59;99522.72;;;11.69;100.00
60345;BME280;46188;52.324;8.032;2023-03-22T12:37:29;99521.94;;;11.58;100.00
60345;BME280;46188;52.324;8.032;2023-03-22T12:40:00;99512.34;;;11.46;100.00
60345;BME280;46188;52.324;8.032;2023-03-22T12:42:40;99510.69;;;11.34;100.00
60345;BME280;46188;52.324;8.032;2023-03-22T12:45:14;99522.19;;;11.25;100.00
60345;BME280;46188;52.324;8.032;2023-03-22T12:47:46;99524.00;;;11.19;100.00
60345;BME280;46188;52.324;8.032;2023-03-22T12:50:33;99536.31;;;11.14;100.00
60345;BME280;46188;52.324;8.032;2023-03-22T12:53:00;99534.63;;;11.02;100.00
60345;BME280;46188;52.324;8.032;2023-03-22T12:55:35;99536.44;;;10.92;100.00
60345;BME280;46188;52.324;8.032;2023-03-22T12:58:04;99553.16;;;10.93;100.00
60345;BME280;46188;52.324;8.032;2023-03-22T13:00:45;99551.41;;;10.87;100.00
60345;BME280;46188;52.324;8.032;2023-03-22T13:05:43;99547.03;;;10.89;100.00
60345;BME280;46188;52.324;8.032;2023-03-22T13:08:08;99546.13;;;10.92;100.00
60345;BME280;46188;52.324;8.032;2023-03-22T13:13:12;99551.41;;;10.87;100.00
60345;BME280;46188;52.324;8.032;2023-03-22T13:18:29;99536.41;;;11.03;100.00
60345;BME280;46188;52.324;8.032;2023-03-22T13:21:15;99538.09;;;11.13;100.00
60345;BME280;46188;52.324;8.032;2023-03-22T13:24:00;99545.09;;;11.19;100.00
60345;BME280;46188;52.324;8.032;2023-03-22T13:26:53;99546.84;;;11.20;100.00
60345;BME280;46188;52.324;8.032;2023-03-22T13:31:58;99540.72;;;11.15;100.00
60345;BME280;46188;52.324;8.032;2023-03-22T13:34:47;99547.69;;;11.20;100.00
60345;BME280;46188;52.324;8.032;2023-03-22T13:37:36;99539.81;;;11.19;100.00
60345;BME280;46188;52.324;8.032;2023-03-22T13:40:27;99537.13;;;11.22;100.00
60345;BME280;46188;52.324;8.032;2023-03-22T13:43:32;99531.84;;;11.23;100.00
60345;BME280;46188;52.324;8.032;2023-03-22T13:51:20;99511.56;;;11.30;100.00